createdAt,value
2023-04-27T00:00:25.911Z,96043.38
2023-04-27T00:02:55.499Z,96038.31
2023-04-27T00:05:23.901Z,96037.50
2023-04-27T00:07:52.122Z,96034.06
2023-04-27T00:10:20.329Z,96025.13
2023-04-27T00:12:48.498Z,96033.25
2023-04-27T00:15:16.922Z,96028.16
2023-04-27T00:17:45.059Z,96034.47
2023-04-27T00:20:14.727Z,96032.63
2023-04-27T00:22:42.869Z,96030.59
2023-04-27T00:25:11.870Z,96028.97
2023-04-27T00:27:40.302Z,96019.44
2023-04-27T00:30:09.562Z,96026.75
2023-04-27T00:32:37.682Z,96030.84
2023-04-27T00:35:06.226Z,96028.44
2023-04-27T00:37:35.674Z,96023.16
2023-04-27T00:40:05.971Z,96026.59
2023-04-27T00:42:34.478Z,96028.22
2023-04-27T00:45:03.359Z,96020.28
2023-04-27T00:47:31.838Z,96021.53
2023-04-27T00:49:59.901Z,96028.63
2023-04-27T00:52:28.200Z,96030.25
2023-04-27T00:54:58.861Z,96018.88
2023-04-27T00:57:26.962Z,96034.72
2023-04-27T00:59:55.086Z,96035.53
2023-04-27T01:02:23.312Z,96038.16
2023-04-27T01:04:52.123Z,96035.75
2023-04-27T01:07:20.684Z,96032.28
2023-04-27T01:09:49.073Z,96033.75
2023-04-27T01:12:18.568Z,96037.00
2023-04-27T01:14:46.681Z,96039.44
2023-04-27T01:17:15.208Z,96036.19
2023-04-27T01:19:45.043Z,96037.63
2023-04-27T01:22:15.210Z,96042.72
2023-04-27T01:24:44.716Z,96039.69
2023-04-27T01:27:12.767Z,96043.34
2023-04-27T01:29:40.913Z,96041.16
2023-04-27T01:32:10.308Z,96035.47
2023-04-27T01:34:38.436Z,96037.50
2023-04-27T01:37:07.218Z,96036.94
2023-04-27T01:39:35.541Z,96028.41
2023-04-27T01:42:05.243Z,96035.50
2023-04-27T01:44:33.318Z,96036.53
2023-04-27T01:47:01.862Z,96040.38
2023-04-27T01:49:30.145Z,96040.59
2023-04-27T01:51:58.550Z,96033.47
2023-04-27T01:54:28.675Z,96036.13
2023-04-27T01:56:58.713Z,96040.00
2023-04-27T01:59:28.264Z,96041.44
2023-04-27T02:01:56.631Z,96032.09
2023-04-27T02:04:25.980Z,96034.38
2023-04-27T02:06:54.070Z,96042.69
2023-04-27T02:09:22.541Z,96039.22
2023-04-27T02:11:50.710Z,96041.06
2023-04-27T02:14:18.862Z,96048.34
2023-04-27T02:16:49.877Z,96045.91
2023-04-27T02:19:18.528Z,96045.13
2023-04-27T02:21:46.723Z,96044.34
2023-04-27T02:24:14.827Z,96038.44
2023-04-27T02:26:43.572Z,96046.56
2023-04-27T02:29:12.233Z,96049.41
2023-04-27T02:31:41.089Z,96045.94
2023-04-27T02:34:10.762Z,96055.31
2023-04-27T02:36:38.821Z,96061.16
2023-04-27T02:39:06.947Z,96058.53
2023-04-27T02:41:35.859Z,96051.44
2023-04-27T02:44:03.966Z,96055.31
2023-04-27T02:46:32.956Z,96058.97
2023-04-27T02:49:01.240Z,96058.16
2023-04-27T02:51:32.066Z,96057.94
2023-04-27T02:54:00.177Z,96052.25
2023-04-27T02:56:28.350Z,96049.19
2023-04-27T02:58:57.415Z,96059.75
2023-04-27T03:01:25.667Z,96057.28
2023-04-27T03:03:54.049Z,96050.78
2023-04-27T03:06:22.324Z,96057.69
2023-04-27T03:08:51.848Z,96054.66
2023-04-27T03:11:19.880Z,96055.22
2023-04-27T03:13:48.380Z,96061.50
2023-04-27T03:16:16.660Z,96060.88
2023-04-27T03:18:44.756Z,96054.19
2023-04-27T03:21:13.119Z,96061.06
2023-04-27T03:23:41.819Z,96067.78
2023-04-27T03:26:13.384Z,96059.63
2023-04-27T03:28:42.738Z,96067.53
2023-04-27T03:31:11.483Z,96065.31
2023-04-27T03:33:39.638Z,96068.13
2023-04-27T03:36:08.406Z,96072.78
2023-04-27T03:38:36.608Z,96072.38
2023-04-27T03:41:05.770Z,96075.38
2023-04-27T03:43:35.221Z,96079.63
2023-04-27T03:46:04.378Z,96090.81
2023-04-27T03:48:32.790Z,96082.47
2023-04-27T03:51:01.749Z,96081.47
2023-04-27T03:53:30.217Z,96085.28
2023-04-27T03:55:58.285Z,96085.47
2023-04-27T03:58:28.601Z,96086.66
2023-04-27T04:01:24.947Z,96088.28
2023-04-27T04:03:53.295Z,96090.72
2023-04-27T04:06:21.635Z,96088.69
2023-04-27T04:08:50.143Z,96091.09
2023-04-27T04:11:18.784Z,96095.75
2023-04-27T04:13:47.474Z,96090.47
2023-04-27T04:16:15.869Z,96091.66
2023-04-27T04:18:45.405Z,96092.03
2023-04-27T04:21:13.515Z,96096.31
2023-04-27T04:23:42.141Z,96094.25
2023-04-27T04:26:10.285Z,96098.13
2023-04-27T04:28:38.770Z,96093.41
2023-04-27T04:31:09.878Z,96100.09
2023-04-27T04:33:38.228Z,96102.34
2023-04-27T04:36:08.882Z,96101.91
2023-04-27T04:38:37.022Z,96098.84
2023-04-27T04:41:07.326Z,96106.34
2023-04-27T04:43:35.462Z,96109.38
2023-04-27T04:46:07.502Z,96109.53
2023-04-27T04:48:36.841Z,96123.94
2023-04-27T04:51:06.489Z,96115.78
2023-04-27T04:53:37.390Z,96114.13
2023-04-27T04:56:11.853Z,96118.78
2023-04-27T04:58:40.091Z,96127.91
2023-04-27T05:01:08.752Z,96125.19
2023-04-27T05:03:36.975Z,96123.75
2023-04-27T05:06:05.368Z,96116.78
2023-04-27T05:08:33.400Z,96120.22
2023-04-27T05:11:02.824Z,96117.31
2023-04-27T05:13:31.117Z,96120.84
2023-04-27T05:15:59.543Z,96119.53
2023-04-27T05:18:27.707Z,96119.09
2023-04-27T05:20:56.417Z,96116.38
2023-04-27T05:23:24.539Z,96111.19
2023-04-27T05:25:52.726Z,96113.94
2023-04-27T05:28:22.254Z,96114.66
2023-04-27T05:30:50.285Z,96112.78
2023-04-27T05:33:18.336Z,96114.91
2023-04-27T05:35:46.493Z,96111.59
2023-04-27T05:38:17.529Z,96109.53
2023-04-27T05:40:45.727Z,96106.78
2023-04-27T05:43:14.283Z,96103.41
2023-04-27T05:45:43.823Z,96104.28
2023-04-27T05:48:12.066Z,96100.28
2023-04-27T05:50:40.149Z,96105.03
2023-04-27T05:53:08.275Z,96111.44
2023-04-27T05:55:37.647Z,96108.25
2023-04-27T05:58:08.999Z,96118.72
2023-04-27T06:00:38.471Z,96103.63
2023-04-27T06:03:08.138Z,96102.72
2023-04-27T06:05:36.521Z,96097.78
2023-04-27T06:08:05.091Z,96104.47
2023-04-27T06:10:33.188Z,96099.28
2023-04-27T06:13:01.222Z,96113.84
2023-04-27T06:15:29.376Z,96110.28
2023-04-27T06:17:57.514Z,96105.47
2023-04-27T06:20:27.081Z,96105.03
2023-04-27T06:22:55.251Z,96106.97
2023-04-27T06:25:26.624Z,96112.88
2023-04-27T06:27:55.427Z,96104.53
2023-04-27T06:30:23.701Z,96107.56
2023-04-27T06:32:52.124Z,96113.56
2023-04-27T06:35:21.646Z,96119.50
2023-04-27T06:37:51.563Z,96123.81
2023-04-27T06:40:19.768Z,96123.91
2023-04-27T06:42:47.882Z,96124.59
2023-04-27T06:45:15.988Z,96118.56
2023-04-27T06:47:44.141Z,96122.56
2023-04-27T06:50:12.507Z,96128.28
2023-04-27T06:52:40.603Z,96131.34
2023-04-27T06:55:10.991Z,96129.94
2023-04-27T06:57:39.109Z,96133.53
2023-04-27T07:00:08.960Z,96137.28
2023-04-27T07:02:37.124Z,96142.53
2023-04-27T07:05:06.117Z,96143.66
2023-04-27T07:07:34.378Z,96145.13
2023-04-27T07:10:02.750Z,96149.81
2023-04-27T07:12:32.750Z,96149.13
2023-04-27T07:15:00.881Z,96148.53
2023-04-27T07:17:29.374Z,96139.34
2023-04-27T07:19:57.662Z,96132.59
2023-04-27T07:22:25.756Z,96134.53
2023-04-27T07:24:53.836Z,96134.78
2023-04-27T07:27:22.327Z,96137.22
2023-04-27T07:29:51.789Z,96142.19
2023-04-27T07:32:20.267Z,96136.78
2023-04-27T07:34:53.360Z,96131.78
2023-04-27T07:37:22.429Z,96136.53
2023-04-27T07:39:52.045Z,96136.16
2023-04-27T07:42:20.217Z,96146.28
2023-04-27T07:44:50.466Z,96144.75
2023-04-27T07:47:21.907Z,96149.06
2023-04-27T07:49:49.989Z,96145.31
2023-04-27T07:52:18.088Z,96151.34
2023-04-27T07:54:46.374Z,96157.13
2023-04-27T07:57:14.436Z,96150.44
2023-04-27T07:59:42.525Z,96145.59
2023-04-27T08:02:18.350Z,96150.06
2023-04-27T08:04:49.979Z,96144.34
2023-04-27T08:07:18.713Z,96141.13
2023-04-27T08:09:47.599Z,96154.56
2023-04-27T08:12:15.730Z,96152.75
2023-04-27T08:14:44.300Z,96154.41
2023-04-27T08:17:12.536Z,96148.75
2023-04-27T08:19:41.004Z,96142.16
2023-04-27T08:22:10.672Z,96155.53
2023-04-27T08:24:38.736Z,96158.53
2023-04-27T08:27:07.211Z,96145.25
2023-04-27T08:29:35.503Z,96142.03
2023-04-27T08:32:04.074Z,96143.91
2023-04-27T08:34:32.974Z,96142.59
2023-04-27T08:37:02.359Z,96151.97
2023-04-27T08:39:31.889Z,96148.75
2023-04-27T08:42:00.444Z,96142.03
2023-04-27T08:44:28.913Z,96150.13
2023-04-27T08:46:57.135Z,96152.22
2023-04-27T08:49:25.221Z,96147.41
2023-04-27T08:51:53.346Z,96148.78
2023-04-27T08:54:21.973Z,96153.63
2023-04-27T08:56:51.468Z,96149.34
2023-04-27T08:59:19.539Z,96144.03
2023-04-27T09:01:49.013Z,96150.19
2023-04-27T09:04:18.024Z,96151.00
2023-04-27T09:06:46.565Z,96149.66
2023-04-27T09:09:23.197Z,96149.91
2023-04-27T09:11:52.704Z,96152.84
2023-04-27T09:14:21.304Z,96150.97
2023-04-27T09:16:56.185Z,96148.03
2023-04-27T09:19:27.636Z,96154.72
2023-04-27T09:22:05.522Z,96153.91
2023-04-27T09:24:33.688Z,96153.56
2023-04-27T09:27:05.145Z,96162.53
2023-04-27T09:29:34.630Z,96149.53
2023-04-27T09:32:02.869Z,96146.97
2023-04-27T09:34:40.836Z,96145.50
2023-04-27T09:37:09.808Z,96156.63
2023-04-27T09:39:38.050Z,96147.66
2023-04-27T09:42:08.482Z,96145.16
2023-04-27T09:44:36.608Z,96153.88
2023-04-27T09:47:04.943Z,96144.78
2023-04-27T09:49:33.851Z,96144.53
2023-04-27T09:52:02.853Z,96134.88
2023-04-27T09:54:32.332Z,96135.34
2023-04-27T09:57:16.025Z,96133.06
2023-04-27T09:59:58.862Z,96125.94
2023-04-27T10:02:27.041Z,96127.41
2023-04-27T10:05:18.916Z,96127.53
2023-04-27T10:07:47.329Z,96117.75
2023-04-27T10:10:19.193Z,96115.63
2023-04-27T10:12:58.548Z,96125.31
2023-04-27T10:15:30.240Z,96126.38
2023-04-27T10:18:05.401Z,96128.53
2023-04-27T10:20:34.213Z,96117.66
2023-04-27T10:23:02.376Z,96118.91
2023-04-27T10:25:31.718Z,96125.97
2023-04-27T10:28:01.767Z,96110.91
2023-04-27T10:30:33.313Z,96111.78
2023-04-27T10:33:06.506Z,96123.50
2023-04-27T10:35:34.827Z,96120.19
2023-04-27T10:38:09.546Z,96111.53
2023-04-27T10:40:38.149Z,96117.41
2023-04-27T10:43:11.426Z,96109.63
2023-04-27T10:45:39.494Z,96097.84
2023-04-27T10:48:08.064Z,96100.13
2023-04-27T10:50:37.047Z,96109.59
2023-04-27T10:53:06.207Z,96114.31
2023-04-27T10:55:35.064Z,96110.75
2023-04-27T10:58:04.323Z,96111.34
2023-04-27T11:00:34.744Z,96111.56
2023-04-27T11:03:12.590Z,96114.09
2023-04-27T11:05:41.358Z,96121.34
2023-04-27T11:08:10.022Z,96109.91
2023-04-27T11:10:40.158Z,96104.72
2023-04-27T11:13:10.326Z,96112.53
2023-04-27T11:15:50.079Z,96123.69
2023-04-27T11:18:19.277Z,96125.41
2023-04-27T11:20:49.104Z,96130.66
2023-04-27T11:23:25.628Z,96117.63
2023-04-27T11:25:54.491Z,96121.66
2023-04-27T11:28:22.721Z,96108.59
2023-04-27T11:30:58.240Z,96118.28
2023-04-27T11:33:26.404Z,96108.13
2023-04-27T11:35:54.510Z,96105.09
2023-04-27T11:38:23.362Z,96107.59
2023-04-27T11:41:00.519Z,96113.28
2023-04-27T11:43:28.656Z,96114.84
2023-04-27T11:45:58.987Z,96122.59
2023-04-27T11:48:28.396Z,96106.94
2023-04-27T11:50:59.193Z,96113.56
2023-04-27T11:53:31.619Z,96117.81
2023-04-27T11:56:01.159Z,96110.09
2023-04-27T11:58:29.322Z,96115.34
2023-04-27T12:00:59.317Z,96111.00
2023-04-27T12:03:28.974Z,96106.38
2023-04-27T12:06:04.150Z,96106.72
2023-04-27T12:08:40.102Z,96106.31
2023-04-27T12:11:08.241Z,96105.00
2023-04-27T12:13:36.285Z,96115.50
2023-04-27T12:16:06.980Z,96118.28
2023-04-27T12:18:35.697Z,96108.47
2023-04-27T12:21:07.740Z,96109.47
2023-04-27T12:23:36.649Z,96115.03
2023-04-27T12:26:05.199Z,96107.50
2023-04-27T12:28:33.286Z,96119.19
2023-04-27T12:31:04.008Z,96108.84
2023-04-27T12:33:33.942Z,96114.69
2023-04-27T12:36:02.027Z,96107.78
2023-04-27T12:38:30.116Z,96112.44
2023-04-27T12:40:58.193Z,96109.44
2023-04-27T12:43:26.408Z,96109.34
2023-04-27T12:45:55.037Z,96099.94
2023-04-27T12:48:23.651Z,96105.13
2023-04-27T12:50:53.209Z,96100.06
2023-04-27T12:53:27.449Z,96096.00
2023-04-27T12:55:55.945Z,96099.53
2023-04-27T12:58:24.416Z,96094.97
2023-04-27T13:00:52.955Z,96096.69
2023-04-27T13:03:21.186Z,96101.84
2023-04-27T13:05:49.794Z,96104.22
2023-04-27T13:08:19.301Z,96106.38
2023-04-27T13:10:47.403Z,96102.34
2023-04-27T13:13:15.909Z,96100.50
2023-04-27T13:15:44.116Z,96101.06
2023-04-27T13:18:12.341Z,96093.41
2023-04-27T13:20:40.463Z,96091.59
2023-04-27T13:23:08.819Z,96098.06
2023-04-27T13:25:38.271Z,96097.00
2023-04-27T13:28:07.529Z,96096.91
2023-04-27T13:30:35.814Z,96098.53
2023-04-27T13:33:18.592Z,96098.34
2023-04-27T13:35:50.545Z,96099.75
2023-04-27T13:38:18.732Z,96094.56
2023-04-27T13:40:48.613Z,96099.59
2023-04-27T13:43:16.743Z,96102.81
2023-04-27T13:45:45.396Z,96095.91
2023-04-27T13:48:13.681Z,96093.56
2023-04-27T13:50:41.942Z,96091.63
2023-04-27T13:53:10.089Z,96093.72
2023-04-27T13:55:38.657Z,96092.94
2023-04-27T13:58:08.234Z,96090.66
2023-04-27T14:00:37.446Z,96085.28
2023-04-27T14:03:05.882Z,96093.47
2023-04-27T14:05:34.117Z,96083.09
2023-04-27T14:08:02.687Z,96083.50
2023-04-27T14:10:31.149Z,96081.94
2023-04-27T14:12:59.234Z,96080.88
2023-04-27T14:15:29.193Z,96074.97
2023-04-27T14:17:57.315Z,96085.91
2023-04-27T14:20:27.312Z,96078.75
2023-04-27T14:22:58.299Z,96077.50
2023-04-27T14:25:27.315Z,96069.41
2023-04-27T14:27:55.410Z,96070.75
2023-04-27T14:30:24.031Z,96064.13
2023-04-27T14:32:53.954Z,96069.44
2023-04-27T14:35:23.758Z,96060.41
2023-04-27T14:37:52.136Z,96064.34
2023-04-27T14:40:20.483Z,96067.06
2023-04-27T14:42:48.619Z,96064.25
2023-04-27T14:45:18.957Z,96065.78
2023-04-27T14:47:48.528Z,96069.13
2023-04-27T14:50:18.170Z,96068.31
2023-04-27T14:52:46.389Z,96078.78
2023-04-27T14:55:15.307Z,96078.22
2023-04-27T14:57:43.396Z,96076.75
2023-04-27T15:00:14.651Z,96079.00
2023-04-27T15:02:43.010Z,96082.44
2023-04-27T15:05:11.507Z,96089.81
2023-04-27T15:07:41.289Z,96084.34
2023-04-27T15:10:10.906Z,96082.66
2023-04-27T15:12:38.997Z,96070.88
2023-04-27T15:15:10.709Z,96075.78
2023-04-27T15:17:39.091Z,96076.94
2023-04-27T15:20:08.688Z,96073.91
2023-04-27T15:22:36.936Z,96074.88
2023-04-27T15:25:08.423Z,96076.31
2023-04-27T15:27:37.077Z,96082.03
2023-04-27T15:30:06.251Z,96080.53
2023-04-27T15:32:34.482Z,96075.81
2023-04-27T15:35:02.621Z,96080.88
2023-04-27T15:37:30.810Z,96076.09
2023-04-27T15:39:59.222Z,96079.22
2023-04-27T15:42:28.815Z,96076.25
2023-04-27T15:44:57.375Z,96077.28
2023-04-27T15:47:25.519Z,96072.66
2023-04-27T15:49:57.440Z,96068.41
2023-04-27T15:52:27.108Z,96067.91
2023-04-27T15:54:55.991Z,96062.13
2023-04-27T15:57:24.027Z,96062.34
2023-04-27T15:59:53.713Z,96058.91
2023-04-27T16:02:24.512Z,96055.91
2023-04-27T16:04:57.685Z,96048.50
2023-04-27T16:07:25.731Z,96052.81
2023-04-27T16:09:58.483Z,96043.44
2023-04-27T16:12:28.186Z,96047.59
2023-04-27T16:14:58.139Z,96046.53
2023-04-27T16:17:26.407Z,96041.44
2023-04-27T16:19:54.599Z,96036.91
2023-04-27T16:22:23.507Z,96034.53
2023-04-27T16:24:51.876Z,96028.88
2023-04-27T16:27:20.840Z,96037.19
2023-04-27T16:29:49.362Z,96036.16
2023-04-27T16:32:21.752Z,96030.25
2023-04-27T16:34:49.878Z,96027.34
2023-04-27T16:37:18.065Z,96027.63
2023-04-27T16:39:46.530Z,96026.03
2023-04-27T16:42:19.793Z,96033.53
2023-04-27T16:44:47.986Z,96033.25
2023-04-27T16:47:16.087Z,96031.94
2023-04-27T16:49:45.914Z,96022.81
2023-04-27T16:52:14.054Z,96029.25
2023-04-27T16:54:42.273Z,96023.66
2023-04-27T16:57:10.422Z,96031.69
2023-04-27T16:59:38.646Z,96029.56
2023-04-27T17:02:23.137Z,96027.69
2023-04-27T17:04:53.952Z,96022.34
2023-04-27T17:07:22.389Z,96021.53
2023-04-27T17:09:50.506Z,96022.59
2023-04-27T17:12:18.571Z,96029.81
2023-04-27T17:14:46.795Z,96022.88
2023-04-27T17:17:15.336Z,96028.75
2023-04-27T17:19:43.433Z,96026.34
2023-04-27T17:22:14.819Z,96034.38
2023-04-27T17:24:42.862Z,96029.81
2023-04-27T17:27:11.507Z,96038.63
2023-04-27T17:29:44.163Z,96037.84
2023-04-27T17:32:12.731Z,96035.41
2023-04-27T17:34:42.983Z,96036.44
2023-04-27T17:37:12.709Z,96036.91
2023-04-27T17:39:41.307Z,96035.25
2023-04-27T17:42:12.494Z,96038.41
2023-04-27T17:44:42.383Z,96045.88
2023-04-27T17:47:10.602Z,96049.50
2023-04-27T17:49:38.658Z,96047.88
2023-04-27T17:52:06.787Z,96050.75
2023-04-27T17:54:36.274Z,96050.91
2023-04-27T17:57:04.477Z,96050.34
2023-04-27T17:59:33.173Z,96057.25
2023-04-27T18:02:01.440Z,96053.19
2023-04-27T18:04:29.708Z,96057.41
2023-04-27T18:06:58.092Z,96059.44
2023-04-27T18:09:27.111Z,96052.94
2023-04-27T18:11:57.155Z,96053.91
2023-04-27T18:14:25.626Z,96057.00
2023-04-27T18:16:53.898Z,96056.09
2023-04-27T18:19:22.057Z,96052.28
2023-04-27T18:21:50.853Z,96054.88
2023-04-27T18:24:19.217Z,96053.94
2023-04-27T18:26:47.962Z,96057.31
2023-04-27T18:29:18.011Z,96059.59
2023-04-27T18:31:46.508Z,96058.41
2023-04-27T18:34:14.936Z,96075.16
2023-04-27T18:36:43.143Z,96070.56
2023-04-27T18:39:11.303Z,96075.28
2023-04-27T18:41:40.130Z,96074.34
2023-04-27T18:44:08.270Z,96088.09
2023-04-27T18:46:37.803Z,96085.03
2023-04-27T18:49:05.875Z,96082.28
2023-04-27T18:51:33.962Z,96082.75
2023-04-27T18:54:02.040Z,96082.22
2023-04-27T18:56:30.071Z,96089.31
2023-04-27T18:59:00.339Z,96087.41
2023-04-27T19:01:30.189Z,96092.16
2023-04-27T19:03:59.883Z,96092.63
2023-04-27T19:06:28.058Z,96096.34
2023-04-27T19:08:56.571Z,96090.72
2023-04-27T19:11:25.544Z,96093.84
2023-04-27T19:13:53.974Z,96083.13
2023-04-27T19:16:22.079Z,96094.50
2023-04-27T19:18:50.288Z,96092.88
2023-04-27T19:21:19.856Z,96086.19
2023-04-27T19:23:48.009Z,96089.00
2023-04-27T19:26:16.134Z,96084.75
2023-04-27T19:28:44.206Z,96086.59
2023-04-27T19:31:12.486Z,96087.91
2023-04-27T19:33:46.835Z,96087.31
2023-04-27T19:36:15.364Z,96086.19
2023-04-27T19:38:44.850Z,96084.25
2023-04-27T19:41:14.087Z,96089.47
2023-04-27T19:43:42.292Z,96078.19
2023-04-27T19:46:11.511Z,96080.75
2023-04-27T19:48:42.508Z,96077.22
2023-04-27T19:51:11.315Z,96071.81
2023-04-27T19:53:39.368Z,96066.84
2023-04-27T19:56:08.854Z,96075.56
2023-04-27T19:58:37.270Z,96067.19
2023-04-27T20:01:06.323Z,96061.16
2023-04-27T20:03:35.631Z,96063.75
2023-04-27T20:06:04.184Z,96061.09
2023-04-27T20:08:34.162Z,96063.41
2023-04-27T20:11:02.253Z,96054.78
2023-04-27T20:13:31.716Z,96061.84
2023-04-27T20:16:00.205Z,96053.88
2023-04-27T20:18:31.633Z,96051.34
2023-04-27T20:20:59.796Z,96050.88
2023-04-27T20:23:27.870Z,96057.47
2023-04-27T20:25:55.941Z,96045.72
2023-04-27T20:28:25.840Z,96052.31
2023-04-27T20:30:55.352Z,96041.91
2023-04-27T20:33:23.461Z,96043.16
2023-04-27T20:35:55.517Z,96042.06
2023-04-27T20:38:25.108Z,96034.53
2023-04-27T20:40:54.176Z,96032.34
2023-04-27T20:43:22.336Z,96035.50
2023-04-27T20:45:50.424Z,96030.06
2023-04-27T20:48:19.884Z,96030.78
2023-04-27T20:50:48.065Z,96030.88
2023-04-27T20:53:16.396Z,96022.56
2023-04-27T20:55:46.328Z,96019.00
2023-04-27T20:58:14.375Z,96024.78
2023-04-27T21:00:42.553Z,96021.78
2023-04-27T21:03:10.983Z,96025.72
2023-04-27T21:05:41.087Z,96022.97
2023-04-27T21:08:09.575Z,96019.94
2023-04-27T21:10:37.645Z,96016.97
2023-04-27T21:13:05.878Z,96008.88
2023-04-27T21:15:34.049Z,96013.88
2023-04-27T21:18:03.974Z,96012.47
2023-04-27T21:20:32.265Z,96012.94
2023-04-27T21:23:01.788Z,96011.22
2023-04-27T21:25:29.867Z,96006.03
2023-04-27T21:27:57.976Z,96006.94
2023-04-27T21:30:26.049Z,96010.63
2023-04-27T21:32:54.169Z,96005.34
2023-04-27T21:35:22.661Z,96004.31
2023-04-27T21:37:50.780Z,96004.88
2023-04-27T21:40:20.902Z,96000.03
2023-04-27T21:42:49.008Z,96003.16
2023-04-27T21:45:17.107Z,95996.00
2023-04-27T21:47:46.174Z,95990.94
2023-04-27T21:50:14.384Z,95994.63
2023-04-27T21:52:42.518Z,95993.47
2023-04-27T21:55:11.056Z,95988.59
2023-04-27T21:57:40.543Z,95991.03
2023-04-27T22:00:13.674Z,95993.47
2023-04-27T22:02:51.304Z,95987.94
2023-04-27T22:05:20.935Z,95985.97
2023-04-27T22:07:49.082Z,95984.81
2023-04-27T22:10:17.165Z,95979.72
2023-04-27T22:12:46.906Z,95994.59
2023-04-27T22:15:15.624Z,95987.69
2023-04-27T22:17:44.038Z,95985.84
2023-04-27T22:20:12.791Z,95987.34
2023-04-27T22:22:40.859Z,95987.44
2023-04-27T22:25:09.687Z,95978.47
2023-04-27T22:27:45.126Z,95979.28
2023-04-27T22:30:16.685Z,95981.59
2023-04-27T22:32:44.970Z,95989.41
2023-04-27T22:35:24.767Z,95989.44
2023-04-27T22:37:55.792Z,95985.72
2023-04-27T22:40:24.440Z,95981.47
2023-04-27T22:42:53.031Z,95982.84
2023-04-27T22:45:22.777Z,95970.50
2023-04-27T22:47:51.038Z,95967.81
2023-04-27T22:50:19.328Z,95965.59
2023-04-27T22:52:48.344Z,95969.16
2023-04-27T22:55:16.753Z,95968.13
2023-04-27T22:57:44.836Z,95960.28
2023-04-27T23:00:13.617Z,95957.69
2023-04-27T23:02:43.427Z,95952.97
2023-04-27T23:05:12.423Z,95955.63
2023-04-27T23:07:41.056Z,95953.53
2023-04-27T23:10:10.431Z,95945.47
2023-04-27T23:12:38.815Z,95949.16
2023-04-27T23:15:07.993Z,95941.53
2023-04-27T23:17:36.267Z,95944.19
2023-04-27T23:20:20.467Z,95942.34
2023-04-27T23:22:55.268Z,95940.13
2023-04-27T23:25:23.418Z,95936.59
2023-04-27T23:27:52.543Z,95937.97
2023-04-27T23:30:21.540Z,95938.28
2023-04-27T23:32:49.810Z,95937.81
2023-04-27T23:35:20.097Z,95937.09
2023-04-27T23:37:48.262Z,95938.31
2023-04-27T23:40:16.517Z,95937.84
2023-04-27T23:42:44.966Z,95932.75
2023-04-27T23:45:13.689Z,95925.59
2023-04-27T23:47:42.279Z,95919.25
2023-04-27T23:50:13.472Z,95924.56
2023-04-27T23:52:42.970Z,95914.66
2023-04-27T23:55:11.354Z,95917.56
2023-04-27T23:57:39.460Z,95916.16
